sensor_id;sensor_type;location;lat;lon;timestamp;temperature;humidity
2441;DHT22;1231;53.988;9.470;2023-06-19T00:02:04;21.00;67.90
2441;DHT22;1231;53.988;9.470;2023-06-19T00:04:53;21.00;67.90
2441;DHT22;1231;53.988;9.470;2023-06-19T00:07:42;21.00;67.80
2441;DHT22;1231;53.988;9.470;2023-06-19T00:10:32;21.00;67.80
2441;DHT22;1231;53.988;9.470;2023-06-19T00:13:22;21.00;67.90
2441;DHT22;1231;53.988;9.470;2023-06-19T00:16:11;21.00;67.70
2441;DHT22;1231;53.988;9.470;2023-06-19T00:19:00;20.90;67.70
2441;DHT22;1231;53.988;9.470;2023-06-19T00:21:52;20.90;67.60
2441;DHT22;1231;53.988;9.470;2023-06-19T00:24:46;21.00;67.50
2441;DHT22;1231;53.988;9.470;2023-06-19T00:27:35;20.90;67.50
2441;DHT22;1231;53.988;9.470;2023-06-19T00:33:14;21.00;67.40
2441;DHT22;1231;53.988;9.470;2023-06-19T00:36:09;21.00;67.40
2441;DHT22;1231;53.988;9.470;2023-06-19T00:38:58;21.00;67.40
2441;DHT22;1231;53.988;9.470;2023-06-19T00:41:48;21.00;67.40
2441;DHT22;1231;53.988;9.470;2023-06-19T00:44:39;21.00;67.30
2441;DHT22;1231;53.988;9.470;2023-06-19T00:47:28;21.00;67.30
2441;DHT22;1231;53.988;9.470;2023-06-19T00:50:17;21.00;67.30
2441;DHT22;1231;53.988;9.470;2023-06-19T00:53:07;21.00;67.20
2441;DHT22;1231;53.988;9.470;2023-06-19T00:55:57;21.10;67.20
2441;DHT22;1231;53.988;9.470;2023-06-19T00:58:47;21.10;67.10
2441;DHT22;1231;53.988;9.470;2023-06-19T01:01:36;21.10;67.00
2441;DHT22;1231;53.988;9.470;2023-06-19T01:04:25;21.10;66.90
2441;DHT22;1231;53.988;9.470;2023-06-19T01:07:19;21.10;66.80
2441;DHT22;1231;53.988;9.470;2023-06-19T01:10:13;21.10;66.80
2441;DHT22;1231;53.988;9.470;2023-06-19T01:13:32;21.10;66.70
2441;DHT22;1231;53.988;9.470;2023-06-19T01:16:22;21.20;66.80
2441;DHT22;1231;53.988;9.470;2023-06-19T01:19:16;21.10;66.60
2441;DHT22;1231;53.988;9.470;2023-06-19T01:22:06;21.10;66.60
2441;DHT22;1231;53.988;9.470;2023-06-19T01:24:56;21.10;66.50
2441;DHT22;1231;53.988;9.470;2023-06-19T01:27:45;21.20;66.40
2441;DHT22;1231;53.988;9.470;2023-06-19T01:30:37;21.10;66.40
2441;DHT22;1231;53.988;9.470;2023-06-19T01:33:28;21.20;66.40
2441;DHT22;1231;53.988;9.470;2023-06-19T01:36:20;21.20;66.30
2441;DHT22;1231;53.988;9.470;2023-06-19T01:39:11;21.20;66.20
2441;DHT22;1231;53.988;9.470;2023-06-19T01:42:01;21.20;66.10
2441;DHT22;1231;53.988;9.470;2023-06-19T01:44:52;21.20;66.00
2441;DHT22;1231;53.988;9.470;2023-06-19T01:47:42;21.20;66.00
2441;DHT22;1231;53.988;9.470;2023-06-19T01:50:31;21.20;65.80
2441;DHT22;1231;53.988;9.470;2023-06-19T01:53:20;21.20;65.80
2441;DHT22;1231;53.988;9.470;2023-06-19T01:56:09;21.20;65.80
2441;DHT22;1231;53.988;9.470;2023-06-19T01:58:58;21.30;65.60
2441;DHT22;1231;53.988;9.470;2023-06-19T02:01:47;21.20;65.60
2441;DHT22;1231;53.988;9.470;2023-06-19T02:04:36;21.20;65.40
2441;DHT22;1231;53.988;9.470;2023-06-19T02:07:25;21.20;65.40
2441;DHT22;1231;53.988;9.470;2023-06-19T02:10:14;21.30;65.40
2441;DHT22;1231;53.988;9.470;2023-06-19T02:13:03;21.30;65.40
2441;DHT22;1231;53.988;9.470;2023-06-19T02:15:52;21.20;65.50
2441;DHT22;1231;53.988;9.470;2023-06-19T02:18:41;21.20;65.40
2441;DHT22;1231;53.988;9.470;2023-06-19T02:21:31;21.20;65.30
2441;DHT22;1231;53.988;9.470;2023-06-19T02:24:20;21.30;65.20
2441;DHT22;1231;53.988;9.470;2023-06-19T02:27:09;21.20;65.20
2441;DHT22;1231;53.988;9.470;2023-06-19T02:29:58;21.20;65.20
2441;DHT22;1231;53.988;9.470;2023-06-19T02:32:47;21.20;65.10
2441;DHT22;1231;53.988;9.470;2023-06-19T02:35:36;21.20;64.90
2441;DHT22;1231;53.988;9.470;2023-06-19T02:38:26;21.20;64.90
2441;DHT22;1231;53.988;9.470;2023-06-19T02:41:15;21.20;64.80
2441;DHT22;1231;53.988;9.470;2023-06-19T02:44:04;21.20;64.70
2441;DHT22;1231;53.988;9.470;2023-06-19T02:46:53;21.30;64.60
2441;DHT22;1231;53.988;9.470;2023-06-19T02:49:42;21.30;64.70
2441;DHT22;1231;53.988;9.470;2023-06-19T02:52:31;21.30;64.70
2441;DHT22;1231;53.988;9.470;2023-06-19T02:55:21;21.20;64.60
2441;DHT22;1231;53.988;9.470;2023-06-19T02:58:10;21.20;64.50
2441;DHT22;1231;53.988;9.470;2023-06-19T03:01:00;21.30;64.40
2441;DHT22;1231;53.988;9.470;2023-06-19T03:03:49;21.20;64.50
2441;DHT22;1231;53.988;9.470;2023-06-19T03:06:41;21.30;64.60
2441;DHT22;1231;53.988;9.470;2023-06-19T03:09:30;21.20;64.60
2441;DHT22;1231;53.988;9.470;2023-06-19T03:12:19;21.20;64.50
2441;DHT22;1231;53.988;9.470;2023-06-19T03:15:08;21.20;64.50
2441;DHT22;1231;53.988;9.470;2023-06-19T03:17:57;21.20;64.40
2441;DHT22;1231;53.988;9.470;2023-06-19T03:20:46;21.30;64.50
2441;DHT22;1231;53.988;9.470;2023-06-19T03:23:35;21.20;64.40
2441;DHT22;1231;53.988;9.470;2023-06-19T03:26:24;21.30;64.60
2441;DHT22;1231;53.988;9.470;2023-06-19T03:29:13;21.30;64.50
2441;DHT22;1231;53.988;9.470;2023-06-19T03:32:03;21.30;64.30
2441;DHT22;1231;53.988;9.470;2023-06-19T03:34:52;21.30;64.30
2441;DHT22;1231;53.988;9.470;2023-06-19T03:37:41;21.30;64.20
2441;DHT22;1231;53.988;9.470;2023-06-19T03:40:30;21.30;64.30
2441;DHT22;1231;53.988;9.470;2023-06-19T03:46:09;21.40;64.00
2441;DHT22;1231;53.988;9.470;2023-06-19T03:48:58;21.40;63.70
2441;DHT22;1231;53.988;9.470;2023-06-19T03:51:48;21.50;63.50
2441;DHT22;1231;53.988;9.470;2023-06-19T03:54:37;21.50;63.30
2441;DHT22;1231;53.988;9.470;2023-06-19T03:57:26;21.50;63.00
2441;DHT22;1231;53.988;9.470;2023-06-19T04:00:16;21.50;63.00
2441;DHT22;1231;53.988;9.470;2023-06-19T04:03:07;21.60;62.90
2441;DHT22;1231;53.988;9.470;2023-06-19T04:05:58;21.60;62.80
2441;DHT22;1231;53.988;9.470;2023-06-19T04:08:48;21.70;62.80
2441;DHT22;1231;53.988;9.470;2023-06-19T04:11:37;21.70;62.90
2441;DHT22;1231;53.988;9.470;2023-06-19T04:14:26;21.60;62.90
2441;DHT22;1231;53.988;9.470;2023-06-19T04:17:17;21.60;62.90
2441;DHT22;1231;53.988;9.470;2023-06-19T04:20:07;21.70;62.70
2441;DHT22;1231;53.988;9.470;2023-06-19T04:23:00;21.70;62.50
2441;DHT22;1231;53.988;9.470;2023-06-19T04:25:49;21.70;62.40
2441;DHT22;1231;53.988;9.470;2023-06-19T04:28:38;21.80;62.40
2441;DHT22;1231;53.988;9.470;2023-06-19T04:31:28;21.80;62.30
2441;DHT22;1231;53.988;9.470;2023-06-19T04:34:18;21.70;62.40
2441;DHT22;1231;53.988;9.470;2023-06-19T04:37:11;21.80;62.70
2441;DHT22;1231;53.988;9.470;2023-06-19T04:40:01;21.80;62.80
2441;DHT22;1231;53.988;9.470;2023-06-19T04:42:50;21.80;62.80
2441;DHT22;1231;53.988;9.470;2023-06-19T04:45:42;21.70;62.90
2441;DHT22;1231;53.988;9.470;2023-06-19T04:48:31;21.70;62.80
2441;DHT22;1231;53.988;9.470;2023-06-19T04:51:20;21.70;62.90
2441;DHT22;1231;53.988;9.470;2023-06-19T04:54:10;21.70;63.10
2441;DHT22;1231;53.988;9.470;2023-06-19T04:56:59;21.70;63.10
2441;DHT22;1231;53.988;9.470;2023-06-19T04:59:48;21.60;63.30
2441;DHT22;1231;53.988;9.470;2023-06-19T05:02:37;21.60;63.20
2441;DHT22;1231;53.988;9.470;2023-06-19T05:05:28;21.60;63.10
2441;DHT22;1231;53.988;9.470;2023-06-19T05:08:17;21.50;63.20
2441;DHT22;1231;53.988;9.470;2023-06-19T05:13:56;21.60;63.10
2441;DHT22;1231;53.988;9.470;2023-06-19T05:16:45;21.60;63.00
2441;DHT22;1231;53.988;9.470;2023-06-19T05:19:34;21.60;63.20
2441;DHT22;1231;53.988;9.470;2023-06-19T05:22:23;21.50;63.40
2441;DHT22;1231;53.988;9.470;2023-06-19T05:25:13;21.50;63.70
2441;DHT22;1231;53.988;9.470;2023-06-19T05:28:02;21.50;63.90
2441;DHT22;1231;53.988;9.470;2023-06-19T05:30:51;21.50;64.40
2441;DHT22;1231;53.988;9.470;2023-06-19T05:33:41;21.50;64.70
2441;DHT22;1231;53.988;9.470;2023-06-19T05:36:30;21.50;64.70
2441;DHT22;1231;53.988;9.470;2023-06-19T05:39:19;21.50;64.50
2441;DHT22;1231;53.988;9.470;2023-06-19T05:42:08;21.50;64.50
2441;DHT22;1231;53.988;9.470;2023-06-19T05:44:57;21.50;64.30
2441;DHT22;1231;53.988;9.470;2023-06-19T05:47:47;21.60;64.40
2441;DHT22;1231;53.988;9.470;2023-06-19T05:53:25;21.60;64.50
2441;DHT22;1231;53.988;9.470;2023-06-19T05:56:15;21.60;64.40
2441;DHT22;1231;53.988;9.470;2023-06-19T05:59:04;21.60;64.30
2441;DHT22;1231;53.988;9.470;2023-06-19T06:01:53;21.60;64.30
2441;DHT22;1231;53.988;9.470;2023-06-19T06:04:42;21.70;64.40
2441;DHT22;1231;53.988;9.470;2023-06-19T06:07:31;21.60;64.40
2441;DHT22;1231;53.988;9.470;2023-06-19T06:10:22;21.70;64.50
2441;DHT22;1231;53.988;9.470;2023-06-19T06:13:11;21.70;64.70
2441;DHT22;1231;53.988;9.470;2023-06-19T06:16:00;21.60;64.80
2441;DHT22;1231;53.988;9.470;2023-06-19T06:18:49;21.70;65.00
2441;DHT22;1231;53.988;9.470;2023-06-19T06:21:38;21.60;65.30
2441;DHT22;1231;53.988;9.470;2023-06-19T06:24:27;21.50;66.00
2441;DHT22;1231;53.988;9.470;2023-06-19T06:27:16;21.50;67.00
2441;DHT22;1231;53.988;9.470;2023-06-19T06:30:06;21.40;67.40
2441;DHT22;1231;53.988;9.470;2023-06-19T06:32:55;21.30;67.80
2441;DHT22;1231;53.988;9.470;2023-06-19T06:35:44;21.30;68.70
2441;DHT22;1231;53.988;9.470;2023-06-19T06:38:33;21.20;69.00
2441;DHT22;1231;53.988;9.470;2023-06-19T06:41:22;21.10;69.40
2441;DHT22;1231;53.988;9.470;2023-06-19T06:44:11;21.10;69.70
2441;DHT22;1231;53.988;9.470;2023-06-19T06:47:00;21.00;70.00
2441;DHT22;1231;53.988;9.470;2023-06-19T06:49:50;20.90;70.30
2441;DHT22;1231;53.988;9.470;2023-06-19T06:52:39;20.80;71.10
2441;DHT22;1231;53.988;9.470;2023-06-19T06:55:28;20.60;71.20
2441;DHT22;1231;53.988;9.470;2023-06-19T06:58:17;20.50;72.10
2441;DHT22;1231;53.988;9.470;2023-06-19T07:01:07;20.50;72.50
2441;DHT22;1231;53.988;9.470;2023-06-19T07:03:56;20.40;72.80
2441;DHT22;1231;53.988;9.470;2023-06-19T07:06:45;20.50;73.10
2441;DHT22;1231;53.988;9.470;2023-06-19T07:09:35;20.50;73.70
2441;DHT22;1231;53.988;9.470;2023-06-19T07:12:24;20.70;74.00
2441;DHT22;1231;53.988;9.470;2023-06-19T07:15:13;20.80;74.40
2441;DHT22;1231;53.988;9.470;2023-06-19T07:18:02;20.90;74.90
2441;DHT22;1231;53.988;9.470;2023-06-19T07:20:51;21.10;74.80
2441;DHT22;1231;53.988;9.470;2023-06-19T07:23:41;21.10;74.50
2441;DHT22;1231;53.988;9.470;2023-06-19T07:26:31;21.10;74.50
2441;DHT22;1231;53.988;9.470;2023-06-19T07:29:20;21.20;74.30
2441;DHT22;1231;53.988;9.470;2023-06-19T07:32:10;21.30;74.10
2441;DHT22;1231;53.988;9.470;2023-06-19T07:34:59;21.30;73.90
2441;DHT22;1231;53.988;9.470;2023-06-19T07:37:48;21.50;74.20
2441;DHT22;1231;53.988;9.470;2023-06-19T07:40:38;21.60;73.70
2441;DHT22;1231;53.988;9.470;2023-06-19T07:43:27;21.70;73.10
2441;DHT22;1231;53.988;9.470;2023-06-19T07:46:16;21.80;72.70
2441;DHT22;1231;53.988;9.470;2023-06-19T07:49:06;22.00;72.80
2441;DHT22;1231;53.988;9.470;2023-06-19T07:51:55;22.10;72.80
2441;DHT22;1231;53.988;9.470;2023-06-19T07:54:52;22.20;72.40
2441;DHT22;1231;53.988;9.470;2023-06-19T07:57:41;22.20;72.40
2441;DHT22;1231;53.988;9.470;2023-06-19T08:00:31;22.20;72.70
2441;DHT22;1231;53.988;9.470;2023-06-19T08:03:19;22.20;72.60
2441;DHT22;1231;53.988;9.470;2023-06-19T08:06:10;22.20;72.90
2441;DHT22;1231;53.988;9.470;2023-06-19T08:11:48;22.70;72.30
2441;DHT22;1231;53.988;9.470;2023-06-19T08:14:38;22.80;71.50
2441;DHT22;1231;53.988;9.470;2023-06-19T08:17:27;22.90;71.10
2441;DHT22;1231;53.988;9.470;2023-06-19T08:20:16;22.80;70.80
2441;DHT22;1231;53.988;9.470;2023-06-19T08:25:55;22.80;71.00
2441;DHT22;1231;53.988;9.470;2023-06-19T08:28:44;22.80;70.90
2441;DHT22;1231;53.988;9.470;2023-06-19T08:31:33;22.90;71.00
2441;DHT22;1231;53.988;9.470;2023-06-19T08:34:23;23.20;70.50
2441;DHT22;1231;53.988;9.470;2023-06-19T08:37:12;23.60;70.20
2441;DHT22;1231;53.988;9.470;2023-06-19T08:40:02;23.80;69.10
2441;DHT22;1231;53.988;9.470;2023-06-19T08:42:53;24.10;68.50
2441;DHT22;1231;53.988;9.470;2023-06-19T08:45:43;24.30;68.10
2441;DHT22;1231;53.988;9.470;2023-06-19T08:48:35;24.70;67.70
2441;DHT22;1231;53.988;9.470;2023-06-19T08:51:26;25.10;66.60
2441;DHT22;1231;53.988;9.470;2023-06-19T08:54:17;25.40;65.80
2441;DHT22;1231;53.988;9.470;2023-06-19T08:57:07;25.60;65.10
2441;DHT22;1231;53.988;9.470;2023-06-19T08:59:56;26.00;64.60
2441;DHT22;1231;53.988;9.470;2023-06-19T09:02:45;26.30;63.60
2441;DHT22;1231;53.988;9.470;2023-06-19T09:05:41;26.50;62.30
2441;DHT22;1231;53.988;9.470;2023-06-19T09:08:32;26.90;61.20
2441;DHT22;1231;53.988;9.470;2023-06-19T09:11:22;27.10;60.50
2441;DHT22;1231;53.988;9.470;2023-06-19T09:14:11;27.30;59.60
2441;DHT22;1231;53.988;9.470;2023-06-19T09:17:05;27.50;59.70
2441;DHT22;1231;53.988;9.470;2023-06-19T09:19:54;27.50;59.30
2441;DHT22;1231;53.988;9.470;2023-06-19T09:22:46;27.80;58.90
2441;DHT22;1231;53.988;9.470;2023-06-19T09:25:50;27.80;58.70
2441;DHT22;1231;53.988;9.470;2023-06-19T09:28:40;27.90;58.30
2441;DHT22;1231;53.988;9.470;2023-06-19T09:31:33;28.00;58.00
2441;DHT22;1231;53.988;9.470;2023-06-19T09:34:22;28.30;57.60
2441;DHT22;1231;53.988;9.470;2023-06-19T09:37:11;28.40;56.70
2441;DHT22;1231;53.988;9.470;2023-06-19T09:40:03;28.50;56.00
2441;DHT22;1231;53.988;9.470;2023-06-19T09:43:05;28.70;55.80
2441;DHT22;1231;53.988;9.470;2023-06-19T09:45:57;29.00;55.60
2441;DHT22;1231;53.988;9.470;2023-06-19T09:48:47;29.20;54.20
2441;DHT22;1231;53.988;9.470;2023-06-19T09:51:41;29.50;53.70
2441;DHT22;1231;53.988;9.470;2023-06-19T09:54:32;29.50;53.00
2441;DHT22;1231;53.988;9.470;2023-06-19T09:57:22;29.60;52.60
2441;DHT22;1231;53.988;9.470;2023-06-19T10:00:12;29.60;52.30
2441;DHT22;1231;53.988;9.470;2023-06-19T10:03:12;29.60;52.40
2441;DHT22;1231;53.988;9.470;2023-06-19T10:06:02;29.80;51.30
2441;DHT22;1231;53.988;9.470;2023-06-19T10:08:51;29.80;51.60
2441;DHT22;1231;53.988;9.470;2023-06-19T10:11:48;29.80;52.20
2441;DHT22;1231;53.988;9.470;2023-06-19T10:14:46;29.70;51.80
2441;DHT22;1231;53.988;9.470;2023-06-19T10:17:41;29.70;51.70
2441;DHT22;1231;53.988;9.470;2023-06-19T10:20:35;30.00;53.10
2441;DHT22;1231;53.988;9.470;2023-06-19T10:23:27;30.20;51.40
2441;DHT22;1231;53.988;9.470;2023-06-19T10:26:17;30.20;51.00
2441;DHT22;1231;53.988;9.470;2023-06-19T10:29:17;30.20;51.10
2441;DHT22;1231;53.988;9.470;2023-06-19T10:32:06;30.20;51.10
2441;DHT22;1231;53.988;9.470;2023-06-19T10:34:55;30.10;51.20
2441;DHT22;1231;53.988;9.470;2023-06-19T10:37:45;30.20;51.00
2441;DHT22;1231;53.988;9.470;2023-06-19T10:40:36;30.30;50.50
2441;DHT22;1231;53.988;9.470;2023-06-19T10:43:26;30.40;50.70
2441;DHT22;1231;53.988;9.470;2023-06-19T10:46:22;30.40;51.00
2441;DHT22;1231;53.988;9.470;2023-06-19T10:49:13;30.20;51.00
2441;DHT22;1231;53.988;9.470;2023-06-19T10:52:02;30.20;50.80
2441;DHT22;1231;53.988;9.470;2023-06-19T10:54:54;30.40;50.80
2441;DHT22;1231;53.988;9.470;2023-06-19T10:57:48;30.50;50.80
2441;DHT22;1231;53.988;9.470;2023-06-19T11:00:37;30.50;51.00
2441;DHT22;1231;53.988;9.470;2023-06-19T11:03:29;30.40;50.40
2441;DHT22;1231;53.988;9.470;2023-06-19T11:06:21;30.30;50.80
2441;DHT22;1231;53.988;9.470;2023-06-19T11:09:12;30.20;50.70
2441;DHT22;1231;53.988;9.470;2023-06-19T11:12:01;30.30;50.50
2441;DHT22;1231;53.988;9.470;2023-06-19T11:14:50;30.40;50.90
2441;DHT22;1231;53.988;9.470;2023-06-19T11:17:40;30.40;50.40
2441;DHT22;1231;53.988;9.470;2023-06-19T11:20:29;30.40;49.90
2441;DHT22;1231;53.988;9.470;2023-06-19T11:23:30;30.50;49.40
2441;DHT22;1231;53.988;9.470;2023-06-19T11:26:19;30.60;49.40
2441;DHT22;1231;53.988;9.470;2023-06-19T11:29:16;30.80;48.90
2441;DHT22;1231;53.988;9.470;2023-06-19T11:32:16;31.00;48.60
2441;DHT22;1231;53.988;9.470;2023-06-19T11:35:12;31.00;48.80
2441;DHT22;1231;53.988;9.470;2023-06-19T11:38:02;30.90;48.90
2441;DHT22;1231;53.988;9.470;2023-06-19T11:40:52;30.80;49.40
2441;DHT22;1231;53.988;9.470;2023-06-19T11:43:42;30.70;49.40
2441;DHT22;1231;53.988;9.470;2023-06-19T11:46:32;30.50;49.50
2441;DHT22;1231;53.988;9.470;2023-06-19T11:49:21;30.30;49.90
2441;DHT22;1231;53.988;9.470;2023-06-19T11:52:10;30.00;50.40
2441;DHT22;1231;53.988;9.470;2023-06-19T11:54:59;29.80;51.20
2441;DHT22;1231;53.988;9.470;2023-06-19T11:57:49;29.60;51.80
2441;DHT22;1231;53.988;9.470;2023-06-19T12:00:38;29.30;52.40
2441;DHT22;1231;53.988;9.470;2023-06-19T12:03:28;29.00;52.40
2441;DHT22;1231;53.988;9.470;2023-06-19T12:06:17;28.70;52.90
2441;DHT22;1231;53.988;9.470;2023-06-19T12:09:07;28.40;53.40
2441;DHT22;1231;53.988;9.470;2023-06-19T12:11:56;28.20;54.20
2441;DHT22;1231;53.988;9.470;2023-06-19T12:14:45;27.90;55.60
2441;DHT22;1231;53.988;9.470;2023-06-19T12:17:34;27.90;56.10
2441;DHT22;1231;53.988;9.470;2023-06-19T12:20:23;27.80;57.20
2441;DHT22;1231;53.988;9.470;2023-06-19T12:23:13;27.90;58.20
2441;DHT22;1231;53.988;9.470;2023-06-19T12:26:02;27.90;58.60
2441;DHT22;1231;53.988;9.470;2023-06-19T12:28:52;28.10;59.10
2441;DHT22;1231;53.988;9.470;2023-06-19T12:31:41;28.00;59.70
2441;DHT22;1231;53.988;9.470;2023-06-19T12:34:30;28.00;60.20
2441;DHT22;1231;53.988;9.470;2023-06-19T12:37:23;28.00;60.90
2441;DHT22;1231;53.988;9.470;2023-06-19T12:40:14;28.00;60.50
2441;DHT22;1231;53.988;9.470;2023-06-19T12:43:04;27.90;60.70
2441;DHT22;1231;53.988;9.470;2023-06-19T12:45:53;27.80;60.70
2441;DHT22;1231;53.988;9.470;2023-06-19T12:48:42;27.60;60.80
2441;DHT22;1231;53.988;9.470;2023-06-19T12:51:31;27.60;61.10
2441;DHT22;1231;53.988;9.470;2023-06-19T12:54:20;27.50;61.60
2441;DHT22;1231;53.988;9.470;2023-06-19T12:57:09;27.60;61.80
2441;DHT22;1231;53.988;9.470;2023-06-19T12:59:58;27.70;61.20
2441;DHT22;1231;53.988;9.470;2023-06-19T13:02:47;27.70;60.90
2441;DHT22;1231;53.988;9.470;2023-06-19T13:05:36;27.60;61.30
2441;DHT22;1231;53.988;9.470;2023-06-19T13:11:15;27.90;60.60
2441;DHT22;1231;53.988;9.470;2023-06-19T13:14:04;28.00;60.70
2441;DHT22;1231;53.988;9.470;2023-06-19T13:16:54;28.10;60.00
2441;DHT22;1231;53.988;9.470;2023-06-19T13:19:43;28.20;59.80
2441;DHT22;1231;53.988;9.470;2023-06-19T13:22:32;28.00;59.70
2441;DHT22;1231;53.988;9.470;2023-06-19T13:25:21;28.00;59.60
2441;DHT22;1231;53.988;9.470;2023-06-19T13:28:11;27.90;59.70
2441;DHT22;1231;53.988;9.470;2023-06-19T13:31:00;27.80;59.80
2441;DHT22;1231;53.988;9.470;2023-06-19T13:33:49;27.60;60.20
2441;DHT22;1231;53.988;9.470;2023-06-19T13:36:38;27.50;60.80
2441;DHT22;1231;53.988;9.470;2023-06-19T13:39:28;27.30;61.00
2441;DHT22;1231;53.988;9.470;2023-06-19T13:42:17;27.10;61.60
2441;DHT22;1231;53.988;9.470;2023-06-19T13:45:07;26.90;62.10
2441;DHT22;1231;53.988;9.470;2023-06-19T13:47:56;26.90;62.40
2441;DHT22;1231;53.988;9.470;2023-06-19T13:50:47;26.90;62.50
2441;DHT22;1231;53.988;9.470;2023-06-19T13:53:36;27.00;62.50
2441;DHT22;1231;53.988;9.470;2023-06-19T13:56:25;27.10;62.60
2441;DHT22;1231;53.988;9.470;2023-06-19T13:59:15;27.30;62.20
2441;DHT22;1231;53.988;9.470;2023-06-19T14:02:05;27.30;62.00
2441;DHT22;1231;53.988;9.470;2023-06-19T14:04:54;27.30;61.80
2441;DHT22;1231;53.988;9.470;2023-06-19T14:10:33;27.30;61.50
2441;DHT22;1231;53.988;9.470;2023-06-19T14:16:11;27.40;60.80
2441;DHT22;1231;53.988;9.470;2023-06-19T14:19:00;27.50;60.90
2441;DHT22;1231;53.988;9.470;2023-06-19T14:21:50;27.60;60.10
2441;DHT22;1231;53.988;9.470;2023-06-19T14:24:40;27.50;59.50
2441;DHT22;1231;53.988;9.470;2023-06-19T14:27:29;27.30;59.50
2441;DHT22;1231;53.988;9.470;2023-06-19T14:30:19;27.20;59.80
2441;DHT22;1231;53.988;9.470;2023-06-19T14:33:08;27.30;59.90
2441;DHT22;1231;53.988;9.470;2023-06-19T14:36:04;27.40;59.30
2441;DHT22;1231;53.988;9.470;2023-06-19T14:38:54;27.60;58.70
2441;DHT22;1231;53.988;9.470;2023-06-19T14:41:43;27.70;58.40
2441;DHT22;1231;53.988;9.470;2023-06-19T14:44:32;27.70;58.30
2441;DHT22;1231;53.988;9.470;2023-06-19T14:47:22;27.90;58.40
2441;DHT22;1231;53.988;9.470;2023-06-19T14:53:01;27.90;58.00
2441;DHT22;1231;53.988;9.470;2023-06-19T14:55:50;27.90;58.40
2441;DHT22;1231;53.988;9.470;2023-06-19T14:58:40;27.80;58.50
2441;DHT22;1231;53.988;9.470;2023-06-19T15:04:18;27.90;58.50
2441;DHT22;1231;53.988;9.470;2023-06-19T15:07:07;27.80;58.90
2441;DHT22;1231;53.988;9.470;2023-06-19T15:12:46;27.80;59.10
2441;DHT22;1231;53.988;9.470;2023-06-19T15:15:35;27.70;59.50
2441;DHT22;1231;53.988;9.470;2023-06-19T15:18:25;27.60;59.50
2441;DHT22;1231;53.988;9.470;2023-06-19T15:21:14;27.70;60.10
2441;DHT22;1231;53.988;9.470;2023-06-19T15:24:04;27.70;60.10
2441;DHT22;1231;53.988;9.470;2023-06-19T15:26:53;27.80;59.90
2441;DHT22;1231;53.988;9.470;2023-06-19T15:32:32;27.80;59.60
2441;DHT22;1231;53.988;9.470;2023-06-19T15:38:11;27.70;59.60
2441;DHT22;1231;53.988;9.470;2023-06-19T15:41:00;27.80;59.80
2441;DHT22;1231;53.988;9.470;2023-06-19T15:43:49;27.70;59.40
2441;DHT22;1231;53.988;9.470;2023-06-19T15:49:28;27.80;59.50
2441;DHT22;1231;53.988;9.470;2023-06-19T15:52:17;27.70;59.40
2441;DHT22;1231;53.988;9.470;2023-06-19T15:55:07;27.70;59.70
2441;DHT22;1231;53.988;9.470;2023-06-19T15:57:56;27.60;59.80
2441;DHT22;1231;53.988;9.470;2023-06-19T16:03:38;27.40;60.60
2441;DHT22;1231;53.988;9.470;2023-06-19T16:06:27;27.50;61.10
2441;DHT22;1231;53.988;9.470;2023-06-19T16:09:16;27.50;61.10
2441;DHT22;1231;53.988;9.470;2023-06-19T16:12:06;27.50;61.20
2441;DHT22;1231;53.988;9.470;2023-06-19T16:17:44;27.40;61.00
2441;DHT22;1231;53.988;9.470;2023-06-19T16:20:35;27.30;61.00
2441;DHT22;1231;53.988;9.470;2023-06-19T16:23:24;27.10;61.50
2441;DHT22;1231;53.988;9.470;2023-06-19T16:26:15;26.90;61.90
2441;DHT22;1231;53.988;9.470;2023-06-19T16:29:05;26.80;61.90
2441;DHT22;1231;53.988;9.470;2023-06-19T16:31:54;26.80;62.20
2441;DHT22;1231;53.988;9.470;2023-06-19T16:34:44;26.70;61.50
2441;DHT22;1231;53.988;9.470;2023-06-19T16:37:33;26.60;61.70
2441;DHT22;1231;53.988;9.470;2023-06-19T16:40:23;26.50;61.80
2441;DHT22;1231;53.988;9.470;2023-06-19T16:43:13;26.40;62.00
2441;DHT22;1231;53.988;9.470;2023-06-19T16:46:02;26.30;62.30
2441;DHT22;1231;53.988;9.470;2023-06-19T16:48:51;26.20;62.60
2441;DHT22;1231;53.988;9.470;2023-06-19T16:51:40;26.20;62.80
2441;DHT22;1231;53.988;9.470;2023-06-19T16:54:30;26.20;62.70
2441;DHT22;1231;53.988;9.470;2023-06-19T16:57:19;26.10;62.60
2441;DHT22;1231;53.988;9.470;2023-06-19T17:00:08;26.10;62.30
2441;DHT22;1231;53.988;9.470;2023-06-19T17:02:59;25.90;62.30
2441;DHT22;1231;53.988;9.470;2023-06-19T17:05:48;25.80;62.30
2441;DHT22;1231;53.988;9.470;2023-06-19T17:08:37;25.70;62.20
2441;DHT22;1231;53.988;9.470;2023-06-19T17:11:26;25.60;62.60
2441;DHT22;1231;53.988;9.470;2023-06-19T17:14:15;25.60;62.70
2441;DHT22;1231;53.988;9.470;2023-06-19T17:17:05;25.60;63.10
2441;DHT22;1231;53.988;9.470;2023-06-19T17:19:54;25.50;63.10
2441;DHT22;1231;53.988;9.470;2023-06-19T17:25:33;25.40;63.50
2441;DHT22;1231;53.988;9.470;2023-06-19T17:28:22;25.20;63.80
2441;DHT22;1231;53.988;9.470;2023-06-19T17:31:10;25.20;64.10
2441;DHT22;1231;53.988;9.470;2023-06-19T17:36:49;25.00;64.40
2441;DHT22;1231;53.988;9.470;2023-06-19T17:39:39;24.80;64.60
2441;DHT22;1231;53.988;9.470;2023-06-19T17:42:29;24.70;64.90
2441;DHT22;1231;53.988;9.470;2023-06-19T17:45:19;24.50;65.10
2441;DHT22;1231;53.988;9.470;2023-06-19T17:48:08;24.40;65.50
2441;DHT22;1231;53.988;9.470;2023-06-19T17:50:57;24.40;65.70
2441;DHT22;1231;53.988;9.470;2023-06-19T17:53:47;24.20;65.80
2441;DHT22;1231;53.988;9.470;2023-06-19T17:59:26;24.00;66.30
2441;DHT22;1231;53.988;9.470;2023-06-19T18:02:17;23.80;66.50
2441;DHT22;1231;53.988;9.470;2023-06-19T18:05:06;23.80;66.80
2441;DHT22;1231;53.988;9.470;2023-06-19T18:07:55;23.70;66.80
2441;DHT22;1231;53.988;9.470;2023-06-19T18:10:44;23.60;67.00
2441;DHT22;1231;53.988;9.470;2023-06-19T18:13:33;23.50;66.90
2441;DHT22;1231;53.988;9.470;2023-06-19T18:16:22;23.40;66.90
2441;DHT22;1231;53.988;9.470;2023-06-19T18:19:12;23.40;67.00
2441;DHT22;1231;53.988;9.470;2023-06-19T18:22:01;23.40;66.90
2441;DHT22;1231;53.988;9.470;2023-06-19T18:27:39;23.20;67.10
2441;DHT22;1231;53.988;9.470;2023-06-19T18:33:18;23.10;66.50
2441;DHT22;1231;53.988;9.470;2023-06-19T18:36:07;23.10;66.50
2441;DHT22;1231;53.988;9.470;2023-06-19T18:38:56;23.00;66.50
2441;DHT22;1231;53.988;9.470;2023-06-19T18:41:45;22.90;66.60
2441;DHT22;1231;53.988;9.470;2023-06-19T18:44:34;22.90;66.70
2441;DHT22;1231;53.988;9.470;2023-06-19T18:47:23;22.80;66.90
2441;DHT22;1231;53.988;9.470;2023-06-19T18:50:12;22.70;67.20
2441;DHT22;1231;53.988;9.470;2023-06-19T18:53:03;22.60;67.50
2441;DHT22;1231;53.988;9.470;2023-06-19T18:55:52;22.60;67.80
2441;DHT22;1231;53.988;9.470;2023-06-19T18:58:45;22.60;68.00
2441;DHT22;1231;53.988;9.470;2023-06-19T19:01:34;22.50;68.20
2441;DHT22;1231;53.988;9.470;2023-06-19T19:04:23;22.40;68.50
2441;DHT22;1231;53.988;9.470;2023-06-19T19:07:12;22.40;68.90
2441;DHT22;1231;53.988;9.470;2023-06-19T19:10:01;22.30;69.10
2441;DHT22;1231;53.988;9.470;2023-06-19T19:12:50;22.20;69.80
2441;DHT22;1231;53.988;9.470;2023-06-19T19:15:39;22.10;70.10
2441;DHT22;1231;53.988;9.470;2023-06-19T19:18:28;22.10;70.40
2441;DHT22;1231;53.988;9.470;2023-06-19T19:21:17;22.00;70.50
2441;DHT22;1231;53.988;9.470;2023-06-19T19:24:07;22.00;70.80
2441;DHT22;1231;53.988;9.470;2023-06-19T19:26:56;21.90;71.00
2441;DHT22;1231;53.988;9.470;2023-06-19T19:29:46;21.80;71.40
2441;DHT22;1231;53.988;9.470;2023-06-19T19:32:35;21.70;71.60